createdAt,value
2018-06-29T00:01:44.777Z,51.06
2018-06-29T00:04:13.006Z,51.39
2018-06-29T00:06:40.629Z,51.68
2018-06-29T00:09:08.589Z,52.23
2018-06-29T00:11:36.253Z,52.54
2018-06-29T00:14:04.162Z,52.01
2018-06-29T00:16:32.228Z,52.77
2018-06-29T00:19:00.104Z,51.83
2018-06-29T00:21:28.119Z,52.22
2018-06-29T00:23:55.806Z,52.69
2018-06-29T00:26:23.417Z,52.76
2018-06-29T00:28:51.716Z,52.38
2018-06-29T00:31:19.364Z,53.15
2018-06-29T00:33:47.047Z,53.34
2018-06-29T00:36:15.027Z,52.56
2018-06-29T00:38:43.232Z,52.54
2018-06-29T00:41:11.096Z,52.40
2018-06-29T00:43:39.209Z,53.38
2018-06-29T00:46:07.082Z,52.81
2018-06-29T00:48:34.984Z,52.83
2018-06-29T00:51:02.984Z,52.64
2018-06-29T00:53:30.888Z,52.64
2018-06-29T00:55:59.141Z,52.37
2018-06-29T00:58:26.774Z,53.19
2018-06-29T01:00:54.657Z,52.51
2018-06-29T01:03:22.901Z,52.76
2018-06-29T01:05:50.864Z,52.77
2018-06-29T01:08:18.556Z,52.29
2018-06-29T01:10:46.190Z,52.78
2018-06-29T01:13:13.895Z,53.34
2018-06-29T01:15:41.491Z,52.60
2018-06-29T01:18:09.138Z,52.77
2018-06-29T01:20:37.021Z,53.27
2018-06-29T01:23:04.931Z,53.15
2018-06-29T01:25:32.807Z,52.83
2018-06-29T01:28:00.493Z,52.66
2018-06-29T01:30:28.374Z,53.09
2018-06-29T01:32:56.239Z,53.56
2018-06-29T01:35:24.482Z,53.64
2018-06-29T01:37:52.748Z,53.15
2018-06-29T01:40:20.600Z,53.89
2018-06-29T01:42:48.461Z,53.19
2018-06-29T01:45:16.222Z,54.06
2018-06-29T01:47:44.553Z,53.17
2018-06-29T01:50:12.325Z,53.28
2018-06-29T01:52:40.640Z,53.24
2018-06-29T01:55:08.477Z,53.96
2018-06-29T01:57:36.202Z,54.02
2018-06-29T02:00:03.905Z,53.88
2018-06-29T02:02:32.054Z,53.63
2018-06-29T02:04:59.662Z,53.46
2018-06-29T02:07:27.929Z,54.04
2018-06-29T02:09:55.540Z,53.66
2018-06-29T02:12:23.296Z,53.79
2018-06-29T02:14:51.008Z,54.09
2018-06-29T02:17:18.649Z,54.28
2018-06-29T02:19:47.033Z,53.54
2018-06-29T02:22:14.654Z,54.13
2018-06-29T02:24:42.491Z,53.40
2018-06-29T02:27:10.201Z,53.77
2018-06-29T02:29:38.153Z,53.38
2018-06-29T02:32:06.134Z,53.93
2018-06-29T02:34:34.457Z,53.75
2018-06-29T02:37:02.673Z,53.85
2018-06-29T02:39:30.645Z,53.81
2018-06-29T02:41:58.574Z,53.72
2018-06-29T02:44:26.216Z,53.88
2018-06-29T02:46:53.835Z,53.07
2018-06-29T02:49:22.191Z,53.77
2018-06-29T02:51:50.178Z,53.02
2018-06-29T02:54:18.149Z,53.51
2018-06-29T02:56:45.809Z,53.12
2018-06-29T02:59:14.149Z,53.22
2018-06-29T03:01:42.465Z,53.90
2018-06-29T03:04:10.139Z,54.12
2018-06-29T03:06:37.839Z,53.67
2018-06-29T03:09:07.751Z,53.90
2018-06-29T03:11:35.398Z,54.02
2018-06-29T03:14:03.194Z,53.95
2018-06-29T03:16:30.812Z,53.36
2018-06-29T03:18:58.481Z,53.47
2018-06-29T03:21:26.148Z,54.31
2018-06-29T03:23:53.806Z,53.76
2018-06-29T03:26:21.942Z,54.57
2018-06-29T03:28:49.533Z,53.88
2018-06-29T03:31:17.433Z,54.14
2018-06-29T03:33:45.216Z,53.86
2018-06-29T03:36:13.333Z,54.32
2018-06-29T03:38:40.965Z,53.99
2018-06-29T03:41:08.815Z,53.47
2018-06-29T03:43:36.580Z,53.45
2018-06-29T03:46:04.222Z,53.30
2018-06-29T03:48:32.163Z,53.75
2018-06-29T03:50:59.792Z,52.69
2018-06-29T03:53:27.799Z,52.54
2018-06-29T03:55:55.541Z,53.48
2018-06-29T03:58:23.882Z,52.56
2018-06-29T04:00:52.153Z,53.59
2018-06-29T04:03:20.028Z,53.61
2018-06-29T04:05:47.910Z,53.31
2018-06-29T04:08:20.585Z,52.87
2018-06-29T04:10:48.586Z,53.51
2018-06-29T04:13:16.217Z,53.01
2018-06-29T04:15:45.468Z,53.16
2018-06-29T04:18:13.453Z,52.75
2018-06-29T04:20:41.080Z,52.85
2018-06-29T04:23:08.801Z,52.55
2018-06-29T04:25:36.553Z,53.27
2018-06-29T04:28:04.500Z,52.65
2018-06-29T04:30:32.489Z,53.45
2018-06-29T04:33:00.181Z,52.75
2018-06-29T04:35:28.026Z,53.03
2018-06-29T04:37:55.685Z,52.12
2018-06-29T04:40:23.806Z,52.26
2018-06-29T04:42:51.745Z,51.98
2018-06-29T04:45:19.718Z,52.08
2018-06-29T04:47:47.917Z,52.79
2018-06-29T04:50:15.809Z,51.66
2018-06-29T04:52:43.890Z,51.83
2018-06-29T04:55:12.100Z,52.83
2018-06-29T04:57:40.079Z,53.70
2018-06-29T05:00:07.801Z,54.07
2018-06-29T05:02:35.412Z,54.13
2018-06-29T05:05:03.029Z,53.46
2018-06-29T05:07:30.766Z,53.42
2018-06-29T05:09:58.447Z,53.83
2018-06-29T05:12:28.378Z,53.99
2018-06-29T05:14:56.188Z,53.39
2018-06-29T05:17:24.158Z,53.95
2018-06-29T05:19:51.785Z,53.42
2018-06-29T05:22:19.682Z,53.45
2018-06-29T05:24:47.303Z,53.81
2018-06-29T05:27:14.943Z,53.06
2018-06-29T05:29:42.579Z,53.11
2018-06-29T05:32:10.822Z,52.85
2018-06-29T05:34:38.432Z,53.75
2018-06-29T05:37:06.061Z,53.65
2018-06-29T05:39:34.516Z,52.79
2018-06-29T05:42:02.433Z,53.49
2018-06-29T05:44:30.185Z,52.70
2018-06-29T05:46:57.881Z,53.39
2018-06-29T05:49:25.489Z,52.76
2018-06-29T05:51:53.162Z,53.13
2018-06-29T05:54:21.075Z,52.28
2018-06-29T05:56:48.738Z,53.11
2018-06-29T05:59:17.922Z,52.57
2018-06-29T06:01:45.961Z,52.60
2018-06-29T06:04:14.033Z,53.10
2018-06-29T06:06:41.694Z,52.66
2018-06-29T06:09:11.078Z,52.35
2018-06-29T06:11:39.299Z,52.97
2018-06-29T06:14:07.027Z,53.17
2018-06-29T06:16:34.930Z,52.97
2018-06-29T06:19:14.269Z,53.27
2018-06-29T06:21:41.953Z,52.30
2018-06-29T06:24:09.753Z,53.27
2018-06-29T06:26:37.469Z,52.82
2018-06-29T06:29:05.392Z,52.16
2018-06-29T06:31:33.181Z,52.08
2018-06-29T06:34:00.819Z,52.94
2018-06-29T06:36:28.428Z,52.14
2018-06-29T06:38:56.577Z,52.51
2018-06-29T06:41:24.240Z,52.60
2018-06-29T06:43:52.289Z,52.51
2018-06-29T06:46:19.941Z,52.70
2018-06-29T06:48:48.137Z,52.58
2018-06-29T06:51:15.881Z,51.96
2018-06-29T06:53:43.632Z,52.21
2018-06-29T06:56:11.310Z,51.92
2018-06-29T06:58:39.342Z,52.21
2018-06-29T07:01:07.242Z,52.03
2018-06-29T07:03:34.853Z,52.29
2018-06-29T07:06:02.517Z,51.66
2018-06-29T07:08:30.541Z,51.98
2018-06-29T07:10:58.785Z,52.60
2018-06-29T07:13:26.969Z,51.48
2018-06-29T07:15:54.869Z,51.58
2018-06-29T07:18:22.843Z,52.36
2018-06-29T07:20:50.492Z,52.31
2018-06-29T07:23:18.363Z,51.50
2018-06-29T07:25:46.326Z,52.25
2018-06-29T07:28:14.038Z,52.07
2018-06-29T07:30:41.645Z,52.21
2018-06-29T07:33:09.343Z,51.46
2018-06-29T07:35:37.829Z,51.41
2018-06-29T07:38:05.802Z,51.31
2018-06-29T07:40:33.514Z,51.59
2018-06-29T07:43:01.210Z,51.83
2018-06-29T07:45:29.127Z,52.17
2018-06-29T07:47:57.000Z,51.50
2018-06-29T07:50:24.687Z,52.07
2018-06-29T07:52:52.589Z,52.17
2018-06-29T07:55:20.361Z,51.41
2018-06-29T07:57:48.337Z,52.12
2018-06-29T08:00:15.958Z,51.17
2018-06-29T08:02:43.680Z,51.94
2018-06-29T08:05:11.259Z,51.55
2018-06-29T08:07:39.141Z,51.05
2018-06-29T08:10:07.126Z,52.05
2018-06-29T08:12:35.088Z,52.36
2018-06-29T08:15:02.685Z,51.57
2018-06-29T08:17:30.933Z,51.66
2018-06-29T08:19:58.729Z,52.21
2018-06-29T08:22:26.513Z,51.77
2018-06-29T08:25:06.501Z,52.42
2018-06-29T08:27:34.126Z,51.41
2018-06-29T08:30:02.073Z,52.45
2018-06-29T08:32:30.101Z,52.42
2018-06-29T08:34:57.952Z,51.81
2018-06-29T08:37:25.649Z,52.40
2018-06-29T08:39:53.235Z,52.31
2018-06-29T08:42:20.937Z,51.49
2018-06-29T08:44:48.580Z,51.88
2018-06-29T08:47:16.566Z,52.08
2018-06-29T08:49:44.913Z,52.02
2018-06-29T08:52:12.850Z,52.32
2018-06-29T08:54:40.524Z,52.00
2018-06-29T08:57:08.477Z,52.35
2018-06-29T08:59:36.107Z,52.77
2018-06-29T09:02:03.963Z,52.02
2018-06-29T09:04:31.723Z,52.22
2018-06-29T09:06:59.353Z,52.36
2018-06-29T09:09:27.010Z,52.18
2018-06-29T09:11:54.930Z,52.51
2018-06-29T09:14:22.602Z,52.12
2018-06-29T09:16:50.396Z,52.59
2018-06-29T09:19:18.112Z,53.07
2018-06-29T09:21:45.957Z,52.96
2018-06-29T09:24:14.687Z,52.89
2018-06-29T09:26:42.656Z,52.89
2018-06-29T09:29:10.309Z,52.91
2018-06-29T09:31:38.349Z,53.12
2018-06-29T09:34:05.973Z,53.03
2018-06-29T09:36:33.964Z,52.74
2018-06-29T09:39:01.810Z,52.82
2018-06-29T09:41:29.813Z,53.55
2018-06-29T09:43:58.074Z,52.58
2018-06-29T09:46:25.828Z,53.27
2018-06-29T09:48:53.467Z,52.49
2018-06-29T09:51:21.387Z,52.68
2018-06-29T09:53:49.051Z,52.55
2018-06-29T09:56:17.060Z,53.37
2018-06-29T09:58:44.656Z,52.58
2018-06-29T10:01:12.400Z,53.21
2018-06-29T10:03:40.559Z,52.55
2018-06-29T10:06:08.170Z,52.36
2018-06-29T10:08:35.917Z,53.28
2018-06-29T10:11:03.800Z,52.80
2018-06-29T10:13:31.681Z,53.19
2018-06-29T10:15:59.635Z,53.36
2018-06-29T10:18:27.288Z,53.07
2018-06-29T10:20:54.905Z,53.17
2018-06-29T10:23:22.571Z,52.54
2018-06-29T10:25:50.319Z,52.99
2018-06-29T10:28:18.208Z,52.38
2018-06-29T10:30:46.172Z,52.82
2018-06-29T10:33:13.794Z,53.15
2018-06-29T10:35:41.806Z,53.21
2018-06-29T10:38:09.708Z,52.68
2018-06-29T10:40:37.298Z,53.08
2018-06-29T10:43:05.109Z,52.47
2018-06-29T10:45:32.977Z,52.54
2018-06-29T10:48:00.878Z,52.90
2018-06-29T10:50:28.482Z,52.89
2018-06-29T10:52:56.169Z,52.96
2018-06-29T10:55:23.797Z,53.79
2018-06-29T10:57:51.469Z,53.07
2018-06-29T11:00:19.133Z,54.09
2018-06-29T11:02:47.142Z,53.67
2018-06-29T11:05:14.960Z,53.79
2018-06-29T11:07:42.628Z,52.84
2018-06-29T11:10:10.251Z,53.39
2018-06-29T11:12:37.994Z,54.03
2018-06-29T11:15:06.420Z,54.10
2018-06-29T11:17:34.050Z,53.64
2018-06-29T11:20:02.086Z,54.77
2018-06-29T11:22:30.306Z,54.43
2018-06-29T11:24:57.937Z,54.12
2018-06-29T11:27:26.195Z,54.49
2018-06-29T11:29:54.060Z,54.61
2018-06-29T11:32:21.874Z,53.68
2018-06-29T11:34:50.266Z,54.27
2018-06-29T11:37:18.496Z,54.25
2018-06-29T11:39:46.110Z,55.04
2018-06-29T11:42:13.918Z,54.22
2018-06-29T11:44:41.562Z,54.96
2018-06-29T11:47:09.177Z,54.29
2018-06-29T11:49:37.486Z,55.36
2018-06-29T11:52:05.150Z,55.03
2018-06-29T11:54:32.830Z,54.86
2018-06-29T11:57:00.835Z,55.72
2018-06-29T11:59:28.459Z,55.17
2018-06-29T12:01:56.635Z,55.85
2018-06-29T12:04:24.644Z,55.93
2018-06-29T12:06:52.320Z,54.48
2018-06-29T12:09:20.557Z,54.82
2018-06-29T12:11:48.261Z,56.20
2018-06-29T12:14:15.902Z,56.56
2018-06-29T12:16:43.630Z,55.76
2018-06-29T12:19:11.640Z,56.06
2018-06-29T12:21:39.416Z,55.90
2018-06-29T12:24:07.136Z,56.25
2018-06-29T12:26:34.749Z,55.30
2018-06-29T12:29:02.742Z,55.63
2018-06-29T12:31:30.941Z,56.18
2018-06-29T12:33:58.629Z,55.04
2018-06-29T12:36:26.448Z,55.81
2018-06-29T12:38:54.210Z,56.12
2018-06-29T12:41:22.057Z,56.02
2018-06-29T12:43:49.806Z,55.63
2018-06-29T12:46:17.796Z,55.57
2018-06-29T12:48:45.452Z,56.33
2018-06-29T12:51:13.386Z,55.56
2018-06-29T12:53:41.163Z,56.10
2018-06-29T12:56:08.805Z,55.48
2018-06-29T12:58:36.590Z,56.06
2018-06-29T13:01:04.489Z,55.77
2018-06-29T13:03:32.736Z,55.28
2018-06-29T13:06:00.893Z,55.26
2018-06-29T13:08:28.671Z,54.74
2018-06-29T13:10:56.309Z,55.40
2018-06-29T13:13:23.956Z,55.28
2018-06-29T13:15:51.966Z,55.75
2018-06-29T13:18:19.918Z,54.83
2018-06-29T13:20:49.959Z,55.35
2018-06-29T13:23:17.612Z,54.76
2018-06-29T13:25:45.769Z,54.83
2018-06-29T13:28:13.774Z,54.35
2018-06-29T13:30:41.459Z,55.15
2018-06-29T13:33:09.075Z,54.45
2018-06-29T13:35:36.925Z,55.01
2018-06-29T13:38:04.966Z,54.93
2018-06-29T13:40:32.597Z,54.00
2018-06-29T13:43:00.397Z,54.65
2018-06-29T13:45:28.444Z,54.46
2018-06-29T13:47:56.310Z,54.22
2018-06-29T13:50:23.949Z,53.64
2018-06-29T13:52:51.622Z,54.22
2018-06-29T13:55:19.502Z,53.54
2018-06-29T13:57:47.789Z,53.20
2018-06-29T14:00:15.445Z,54.17
2018-06-29T14:02:43.086Z,53.71
2018-06-29T14:05:11.162Z,54.12
2018-06-29T14:07:38.808Z,54.04
2018-06-29T14:10:07.160Z,54.32
2018-06-29T14:12:34.858Z,54.24
2018-06-29T14:15:02.561Z,54.10
2018-06-29T14:17:30.584Z,53.20
2018-06-29T14:19:58.221Z,53.09
2018-06-29T14:22:26.102Z,53.08
2018-06-29T14:24:54.491Z,52.38
2018-06-29T14:27:22.141Z,52.17
2018-06-29T14:29:50.576Z,52.15
2018-06-29T14:32:18.372Z,50.44
2018-06-29T14:34:46.037Z,48.88
2018-06-29T14:37:13.877Z,45.81
2018-06-29T14:39:41.544Z,42.37
2018-06-29T14:42:09.439Z,41.08
2018-06-29T14:44:37.403Z,39.47
2018-06-29T14:47:05.323Z,38.24
2018-06-29T14:49:33.559Z,39.04
2018-06-29T14:52:01.513Z,38.89
2018-06-29T14:54:29.368Z,40.82
2018-06-29T14:56:57.075Z,42.45
2018-06-29T14:59:25.340Z,40.39
2018-06-29T15:01:52.987Z,40.22
2018-06-29T15:04:20.678Z,41.96
2018-06-29T15:06:48.306Z,43.95
2018-06-29T15:09:16.390Z,45.45
2018-06-29T15:11:44.489Z,47.29
2018-06-29T15:14:12.745Z,48.15
2018-06-29T15:16:40.377Z,48.92
2018-06-29T15:19:08.223Z,48.82
2018-06-29T15:21:36.284Z,49.36
2018-06-29T15:24:04.199Z,48.89
2018-06-29T15:26:32.101Z,50.00
2018-06-29T15:29:00.347Z,50.25
2018-06-29T15:31:28.019Z,49.90
2018-06-29T15:33:55.695Z,50.10
2018-06-29T15:36:23.661Z,49.56
2018-06-29T15:38:51.598Z,50.49
2018-06-29T15:41:19.545Z,50.35
2018-06-29T15:43:48.168Z,50.83
2018-06-29T15:46:15.948Z,51.14
2018-06-29T15:48:43.636Z,51.25
2018-06-29T15:51:11.551Z,50.63
2018-06-29T15:53:39.769Z,50.12
2018-06-29T15:56:07.678Z,49.97
2018-06-29T15:58:35.300Z,50.24
2018-06-29T16:01:03.019Z,49.83
2018-06-29T16:03:31.021Z,50.39
2018-06-29T16:05:58.990Z,49.84
2018-06-29T16:08:27.166Z,50.52
2018-06-29T16:10:55.077Z,50.71
2018-06-29T16:13:22.745Z,51.11
2018-06-29T16:15:50.954Z,50.62
2018-06-29T16:18:18.821Z,49.75
2018-06-29T16:20:46.730Z,50.08
2018-06-29T16:23:14.365Z,50.37
2018-06-29T16:25:41.983Z,49.15
2018-06-29T16:28:10.023Z,48.45
2018-06-29T16:30:37.642Z,48.29
2018-06-29T16:33:05.521Z,47.30
2018-06-29T16:35:33.210Z,47.30
2018-06-29T16:38:01.440Z,46.96
2018-06-29T16:40:29.245Z,46.24
2018-06-29T16:42:56.920Z,46.28
2018-06-29T16:45:25.109Z,46.22
2018-06-29T16:47:53.366Z,46.29
2018-06-29T16:50:21.393Z,47.23
2018-06-29T16:52:49.789Z,46.56
2018-06-29T16:55:17.845Z,46.85
2018-06-29T16:57:45.460Z,45.74
2018-06-29T17:00:13.090Z,45.09
2018-06-29T17:02:41.233Z,45.20
2018-06-29T17:05:09.146Z,45.15
2018-06-29T17:07:36.794Z,44.37
2018-06-29T17:10:04.748Z,45.20
2018-06-29T17:12:33.274Z,44.40
2018-06-29T17:15:01.562Z,44.46
2018-06-29T17:17:29.585Z,44.23
2018-06-29T17:19:57.296Z,44.38
2018-06-29T17:22:24.928Z,43.93
2018-06-29T17:24:52.606Z,43.58
2018-06-29T17:27:20.259Z,43.55
2018-06-29T17:29:47.922Z,43.31
2018-06-29T17:32:15.558Z,43.62
2018-06-29T17:34:43.235Z,43.66
2018-06-29T17:37:10.961Z,43.83
2018-06-29T17:39:38.649Z,43.19
2018-06-29T17:42:06.932Z,43.40
2018-06-29T17:44:34.931Z,43.22
2018-06-29T17:47:03.104Z,43.67
2018-06-29T17:49:30.764Z,43.80
2018-06-29T17:51:58.424Z,43.79
2018-06-29T17:54:26.656Z,43.66
2018-06-29T17:56:54.571Z,43.83
2018-06-29T17:59:22.204Z,43.22
2018-06-29T18:01:49.890Z,43.21
2018-06-29T18:04:17.939Z,43.18
2018-06-29T18:06:45.878Z,43.43
2018-06-29T18:09:13.807Z,43.92
2018-06-29T18:11:41.804Z,43.98
2018-06-29T18:14:11.642Z,43.76
2018-06-29T18:16:39.423Z,44.14
2018-06-29T18:19:07.073Z,44.29
2018-06-29T18:21:35.073Z,44.38
2018-06-29T18:24:02.743Z,44.06
2018-06-29T18:26:30.642Z,44.57
2018-06-29T18:28:58.295Z,43.83
2018-06-29T18:31:26.294Z,43.91
2018-06-29T18:33:53.943Z,44.41
2018-06-29T18:36:21.595Z,44.05
2018-06-29T18:38:49.256Z,44.74
2018-06-29T18:41:17.191Z,45.16
2018-06-29T18:43:45.254Z,44.70
2018-06-29T18:46:13.126Z,44.99
2018-06-29T18:48:42.373Z,44.65
2018-06-29T18:51:10.306Z,44.91
2018-06-29T18:53:38.063Z,45.05
2018-06-29T18:56:05.704Z,45.43
2018-06-29T18:58:33.321Z,45.69
2018-06-29T19:01:01.224Z,45.59
2018-06-29T19:03:28.848Z,45.66
2018-06-29T19:05:58.879Z,45.93
2018-06-29T19:08:26.506Z,45.55
2018-06-29T19:10:54.144Z,45.93
2018-06-29T19:13:22.176Z,45.60
2018-06-29T19:15:49.829Z,46.50
2018-06-29T19:18:17.474Z,46.58
2018-06-29T19:20:45.187Z,46.73
2018-06-29T19:23:12.806Z,46.90
2018-06-29T19:25:40.449Z,47.04
2018-06-29T19:28:08.720Z,47.20
2018-06-29T19:30:36.372Z,48.82
2018-06-29T19:33:04.024Z,48.40
2018-06-29T19:35:32.438Z,48.39
2018-06-29T19:38:00.288Z,49.56
2018-06-29T19:40:28.234Z,48.48
2018-06-29T19:42:56.853Z,49.34
2018-06-29T19:45:24.934Z,49.09
2018-06-29T19:47:52.865Z,49.99
2018-06-29T19:50:20.847Z,49.89
2018-06-29T19:52:48.540Z,49.93
2018-06-29T19:55:16.199Z,50.43
2018-06-29T19:57:44.261Z,50.95
2018-06-29T20:00:11.869Z,51.01
2018-06-29T20:02:39.809Z,51.27
2018-06-29T20:05:08.094Z,50.30
2018-06-29T20:07:35.754Z,51.45
2018-06-29T20:10:03.640Z,51.63
2018-06-29T20:12:31.577Z,51.00
2018-06-29T20:14:59.557Z,51.21
2018-06-29T20:17:27.673Z,51.01
2018-06-29T20:19:55.428Z,51.60
2018-06-29T20:22:23.053Z,51.56
2018-06-29T20:24:50.683Z,52.45
2018-06-29T20:27:18.367Z,51.50
2018-06-29T20:29:46.342Z,51.60
2018-06-29T20:32:14.034Z,52.09
2018-06-29T20:34:41.684Z,52.20
2018-06-29T20:37:09.699Z,52.38
2018-06-29T20:39:37.593Z,52.68
2018-06-29T20:42:05.209Z,52.49
2018-06-29T20:44:32.893Z,52.73
2018-06-29T20:47:00.580Z,53.17
2018-06-29T20:49:28.368Z,53.27
2018-06-29T20:51:56.029Z,53.24
2018-06-29T20:54:24.098Z,53.62
2018-06-29T20:56:51.817Z,53.54
2018-06-29T20:59:19.707Z,53.89
2018-06-29T21:01:47.476Z,52.98
2018-06-29T21:04:15.328Z,53.34
2018-06-29T21:06:43.568Z,53.22
2018-06-29T21:09:12.169Z,53.52
2018-06-29T21:11:40.660Z,53.93
2018-06-29T21:14:08.354Z,54.57
2018-06-29T21:16:36.033Z,54.79
2018-06-29T21:19:03.798Z,54.26
2018-06-29T21:21:31.569Z,54.09
2018-06-29T21:23:59.553Z,55.02
2018-06-29T21:26:27.417Z,54.84
2018-06-29T21:28:55.086Z,54.92
2018-06-29T21:31:23.022Z,54.25
2018-06-29T21:33:50.740Z,55.27
2018-06-29T21:36:19.008Z,54.71
2018-06-29T21:38:47.201Z,54.42
2018-06-29T21:41:14.832Z,55.21
2018-06-29T21:43:42.515Z,55.12
2018-06-29T21:46:10.510Z,55.74
2018-06-29T21:48:38.460Z,55.41
2018-06-29T21:51:06.085Z,54.76
2018-06-29T21:53:34.073Z,55.55
2018-06-29T21:56:01.921Z,55.68
2018-06-29T21:58:29.557Z,55.07
2018-06-29T22:00:57.201Z,55.10
2018-06-29T22:03:25.548Z,55.30
2018-06-29T22:05:53.182Z,55.23
2018-06-29T22:08:21.405Z,55.39
2018-06-29T22:10:49.036Z,55.45
2018-06-29T22:13:16.923Z,55.75
2018-06-29T22:15:44.567Z,55.28
2018-06-29T22:18:12.250Z,56.04
2018-06-29T22:20:40.403Z,55.71
2018-06-29T22:23:08.056Z,55.96
2018-06-29T22:25:35.688Z,55.92
2018-06-29T22:28:03.897Z,55.69
2018-06-29T22:30:31.636Z,55.74
2018-06-29T22:32:59.283Z,55.80
2018-06-29T22:35:27.272Z,56.05
2018-06-29T22:37:55.153Z,56.44
2018-06-29T22:40:23.457Z,57.00
2018-06-29T22:42:51.086Z,56.03
2018-06-29T22:45:19.044Z,56.01
2018-06-29T22:47:46.689Z,55.88
2018-06-29T22:50:14.375Z,56.89
2018-06-29T22:52:42.469Z,56.09
2018-06-29T22:55:10.092Z,57.05
2018-06-29T22:57:38.570Z,56.13
2018-06-29T23:00:06.413Z,56.20
2018-06-29T23:02:34.318Z,57.04
2018-06-29T23:05:02.330Z,56.32
2018-06-29T23:07:29.968Z,56.39
2018-06-29T23:09:57.833Z,56.13
2018-06-29T23:12:25.526Z,56.36
2018-06-29T23:14:53.163Z,56.59
2018-06-29T23:17:21.089Z,56.94
2018-06-29T23:19:48.989Z,56.63
2018-06-29T23:22:16.615Z,57.28
2018-06-29T23:24:44.354Z,56.38
2018-06-29T23:27:11.996Z,57.43
2018-06-29T23:29:39.871Z,56.30
2018-06-29T23:32:07.753Z,57.39
2018-06-29T23:34:35.423Z,56.37
2018-06-29T23:37:03.286Z,57.48
2018-06-29T23:39:31.191Z,56.74
2018-06-29T23:41:59.424Z,56.69
2018-06-29T23:44:27.062Z,57.10
2018-06-29T23:46:54.707Z,57.08
2018-06-29T23:49:22.625Z,57.30
2018-06-29T23:51:50.331Z,57.59
2018-06-29T23:54:17.989Z,57.07
2018-06-29T23:56:45.955Z,56.33
2018-06-29T23:59:13.730Z,57.03
